Terminal Aerodrome Forecast
Issued by NWS Tuscon, AZ

Home | Current Version | Previous Version | Text Only | Print | Product List | Glossary On
Versions: 1 2 3 4 5 6 7 8 9 10 11 12
000
FTUS45 KTWC 260536
TAFDUG
TAF
KDUG 260536Z 2606/2706 VRB04KT P6SM FEW140 BKN200
     FM261500 21013KT P6SM SCT080 BKN140
     FM262000 25025G35KT P6SM SCT080 BKN140
     FM270300 30012G18KT P6SM FEW080=

USA.gov is the U.S. government's official web portal to all federal, state and local government web resources and services.